createdAt,value
2017-03-09T00:00:14.064Z,81.87
2017-03-09T00:01:14.098Z,81.97
2017-03-09T00:02:14.521Z,81.97
2017-03-09T00:03:14.551Z,81.97
2017-03-09T00:04:14.605Z,81.97
2017-03-09T00:05:14.240Z,81.87
2017-03-09T00:06:14.656Z,82.07
2017-03-09T00:07:14.298Z,81.97
2017-03-09T00:08:14.729Z,81.97
2017-03-09T00:09:14.775Z,82.64
2017-03-09T00:10:14.787Z,82.64
2017-03-09T00:11:14.821Z,82.35
2017-03-09T00:12:14.855Z,82.45
2017-03-09T00:13:14.499Z,82.45
2017-03-09T00:14:14.937Z,82.54
2017-03-09T00:15:14.588Z,82.35
2017-03-09T00:16:14.599Z,82.54
2017-03-09T00:17:14.638Z,82.54
2017-03-09T00:18:14.673Z,82.64
2017-03-09T00:19:14.710Z,82.54
2017-03-09T00:20:15.122Z,82.26
2017-03-09T00:21:15.160Z,82.45
2017-03-09T00:22:15.190Z,82.54
2017-03-09T00:23:15.241Z,82.45
2017-03-09T00:24:15.260Z,82.82
2017-03-09T00:25:14.903Z,82.64
2017-03-09T00:26:15.332Z,82.64
2017-03-09T00:27:15.370Z,82.82
2017-03-09T00:28:15.388Z,83.01
2017-03-09T00:29:15.037Z,82.45
2017-03-09T00:30:15.071Z,82.45
2017-03-09T00:31:15.116Z,82.82
2017-03-09T00:32:15.146Z,83.01
2017-03-09T00:33:15.579Z,82.45
2017-03-09T00:34:15.595Z,82.45
2017-03-09T00:35:15.248Z,83.01
2017-03-09T00:36:15.269Z,82.82
2017-03-09T00:37:15.712Z,82.92
2017-03-09T00:38:15.745Z,82.92
2017-03-09T00:39:15.371Z,82.54
2017-03-09T00:40:15.799Z,83.01
2017-03-09T00:41:15.836Z,83.49
2017-03-09T00:42:15.482Z,83.11
2017-03-09T00:43:15.913Z,83.11
2017-03-09T00:44:15.547Z,83.39
2017-03-09T00:45:15.572Z,83.3
2017-03-09T00:46:15.610Z,83.11
2017-03-09T00:47:15.638Z,83.11
2017-03-09T00:48:16.068Z,83.2
2017-03-09T00:49:15.713Z,82.92
2017-03-09T00:50:15.743Z,83.01
2017-03-09T00:51:15.777Z,83.01
2017-03-09T00:52:16.206Z,83.25
2017-03-09T00:53:15.842Z,83.11
2017-03-09T00:54:16.276Z,83.68
2017-03-09T00:55:15.912Z,83.59
2017-03-09T00:56:15.946Z,83.78
2017-03-09T00:57:15.984Z,83.49
2017-03-09T00:58:16.012Z,83.49
2017-03-09T00:59:16.445Z,83.87
2017-03-09T01:00:16.078Z,83.91
2017-03-09T01:01:16.127Z,83.78
2017-03-09T01:02:16.150Z,83.62
2017-03-09T01:03:16.183Z,83.78
2017-03-09T01:04:16.610Z,84.29
2017-03-09T01:05:16.638Z,83.59
2017-03-09T01:06:16.286Z,83.62
2017-03-09T01:07:16.331Z,83.78
2017-03-09T01:08:16.743Z,84.25
2017-03-09T01:09:16.780Z,84.44
2017-03-09T01:10:16.428Z,83.97
2017-03-09T01:11:16.452Z,83.72
2017-03-09T01:12:16.487Z,84.44
2017-03-09T01:13:16.917Z,84.25
2017-03-09T01:14:16.555Z,84.25
2017-03-09T01:15:16.599Z,84.25
2017-03-09T01:16:16.623Z,84.53
2017-03-09T01:17:16.660Z,84.34
2017-03-09T01:18:17.100Z,84.06
2017-03-09T01:19:16.734Z,84.25
2017-03-09T01:20:17.154Z,84.2
2017-03-09T01:21:16.787Z,84.01
2017-03-09T01:22:16.824Z,84.1
2017-03-09T01:23:17.253Z,84.01
2017-03-09T01:24:17.286Z,84.58
2017-03-09T01:25:17.316Z,84.01
2017-03-09T01:26:17.360Z,84.67
2017-03-09T01:27:17.385Z,84.48
2017-03-09T01:28:17.038Z,84.53
2017-03-09T01:29:17.063Z,84.58
2017-03-09T01:30:17.494Z,84.39
2017-03-09T01:31:17.125Z,84.77
2017-03-09T01:32:17.157Z,84.67
2017-03-09T01:33:17.191Z,84.48
2017-03-09T01:34:17.233Z,84.48
2017-03-09T01:35:17.261Z,84.63
2017-03-09T01:36:17.303Z,84.72
2017-03-09T01:37:17.730Z,85.15
2017-03-09T01:38:17.757Z,84.77
2017-03-09T01:39:17.789Z,85.05
2017-03-09T01:40:17.435Z,84.77
2017-03-09T01:41:17.873Z,85.05
2017-03-09T01:42:17.503Z,84.48
2017-03-09T01:43:17.539Z,85.15
2017-03-09T01:44:17.959Z,84.86
2017-03-09T01:45:17.994Z,85.05
2017-03-09T01:46:18.033Z,85.24
2017-03-09T01:47:17.664Z,85.3
2017-03-09T01:48:17.702Z,85.34
2017-03-09T01:49:18.128Z,85.34
2017-03-09T01:50:17.768Z,85.15
2017-03-09T01:51:18.200Z,85.43
2017-03-09T01:52:17.837Z,85.3
2017-03-09T01:53:18.260Z,85.05
2017-03-09T01:54:17.908Z,85.24
2017-03-09T01:55:18.345Z,85.05
2017-03-09T01:56:17.970Z,85.05
2017-03-09T01:57:18.402Z,85.05
2017-03-09T01:58:18.054Z,84.67
2017-03-09T01:59:18.074Z,85.05
2017-03-09T02:00:18.110Z,85.05
2017-03-09T02:01:18.144Z,85.34
2017-03-09T02:02:18.176Z,85.34
2017-03-09T02:03:18.208Z,85.05
2017-03-09T02:04:18.246Z,85.15
2017-03-09T02:05:18.670Z,85.05
2017-03-09T02:06:18.310Z,85.34
2017-03-09T02:07:18.344Z,85.34
2017-03-09T02:08:18.377Z,85.72
2017-03-09T02:09:18.409Z,84.77
2017-03-09T02:10:18.466Z,85.72
2017-03-09T02:11:18.868Z,85.05
2017-03-09T02:12:18.512Z,85.72
2017-03-09T02:13:18.958Z,85.62
2017-03-09T02:14:18.580Z,85.62
2017-03-09T02:15:18.624Z,85.62
2017-03-09T02:16:18.664Z,85.53
2017-03-09T02:17:19.083Z,85.15
2017-03-09T02:18:18.722Z,85.53
2017-03-09T02:19:19.157Z,85.62
2017-03-09T02:20:19.173Z,85.24
2017-03-09T02:21:18.819Z,86.19
2017-03-09T02:22:18.862Z,86.1
2017-03-09T02:23:19.279Z,85.91
2017-03-09T02:24:18.920Z,86
2017-03-09T02:25:18.951Z,85.72
2017-03-09T02:26:18.996Z,85.62
2017-03-09T02:27:19.411Z,85.91
2017-03-09T02:28:19.463Z,86.38
2017-03-09T02:29:19.484Z,86.38
2017-03-09T02:30:19.137Z,85.81
2017-03-09T02:31:19.550Z,86.19
2017-03-09T02:32:19.206Z,86.47
2017-03-09T02:33:19.224Z,86.19
2017-03-09T02:34:19.654Z,86.29
2017-03-09T02:35:19.292Z,86.57
2017-03-09T02:36:19.731Z,86.67
2017-03-09T02:37:19.757Z,86.67
2017-03-09T02:38:19.391Z,86.95
2017-03-09T02:39:19.442Z,86.86
2017-03-09T02:40:19.460Z,86.86
2017-03-09T02:41:19.497Z,86.67
2017-03-09T02:42:19.924Z,86.67
2017-03-09T02:43:19.561Z,86.67
2017-03-09T02:44:20.025Z,86.47
2017-03-09T02:45:19.634Z,86.86
2017-03-09T02:46:20.076Z,86.86
2017-03-09T02:47:19.696Z,86.47
2017-03-09T02:48:19.735Z,86.76
2017-03-09T02:49:19.767Z,86.67
2017-03-09T02:50:20.194Z,87.43
2017-03-09T02:51:19.833Z,86.86
2017-03-09T02:52:19.868Z,87.05
2017-03-09T02:53:19.901Z,86.95
2017-03-09T02:54:19.935Z,87.24
2017-03-09T02:55:19.971Z,87.14
2017-03-09T02:56:20.004Z,87.05
2017-03-09T02:57:20.056Z,86.67
2017-03-09T02:58:20.074Z,87.14
2017-03-09T02:59:20.127Z,87.14
2017-03-09T03:00:20.540Z,87.05
2017-03-09T03:01:20.175Z,87.14
2017-03-09T03:02:20.209Z,87.05
2017-03-09T03:03:20.645Z,87.05
2017-03-09T03:04:20.674Z,87.05
2017-03-09T03:05:20.697Z,87.34
2017-03-09T03:06:20.345Z,87.34
2017-03-09T03:07:20.378Z,87.62
2017-03-09T03:08:20.421Z,87.34
2017-03-09T03:09:20.444Z,86.95
2017-03-09T03:10:20.482Z,87.52
2017-03-09T03:11:20.512Z,86.86
2017-03-09T03:12:20.547Z,87.24
2017-03-09T03:13:20.584Z,87.24
2017-03-09T03:14:20.614Z,87.52
2017-03-09T03:15:20.649Z,87.24
2017-03-09T03:16:20.679Z,87.81
2017-03-09T03:17:20.736Z,87.34
2017-03-09T03:18:20.752Z,87.24
2017-03-09T03:19:20.783Z,87.62
2017-03-09T03:20:20.836Z,87.71
2017-03-09T03:21:20.849Z,87.9
2017-03-09T03:22:20.900Z,87.52
2017-03-09T03:23:20.921Z,87.62
2017-03-09T03:24:20.959Z,87.71
2017-03-09T03:25:21.398Z,87.52
2017-03-09T03:26:21.025Z,88
2017-03-09T03:27:21.075Z,87.43
2017-03-09T03:28:21.088Z,87.43
2017-03-09T03:29:21.123Z,87.43
2017-03-09T03:30:21.171Z,87.52
2017-03-09T03:31:21.194Z,87.62
2017-03-09T03:32:21.223Z,87.62
2017-03-09T03:33:21.261Z,87.62
2017-03-09T03:34:21.297Z,87.71
2017-03-09T03:35:21.336Z,87.52
2017-03-09T03:36:21.361Z,87.9
2017-03-09T03:37:21.393Z,87.81
2017-03-09T03:38:21.429Z,88.28
2017-03-09T03:39:21.861Z,87.71
2017-03-09T03:40:21.512Z,87.9
2017-03-09T03:41:21.536Z,87.62
2017-03-09T03:42:21.575Z,87.9
2017-03-09T03:43:21.597Z,87.52
2017-03-09T03:44:21.629Z,87.52
2017-03-09T03:45:21.670Z,87.62
2017-03-09T03:46:21.706Z,88.19
2017-03-09T03:47:21.737Z,88.09
2017-03-09T03:48:21.776Z,87.9
2017-03-09T03:49:21.802Z,87.9
2017-03-09T03:50:21.834Z,88.09
2017-03-09T03:51:21.868Z,88.47
2017-03-09T03:52:21.914Z,88.28
2017-03-09T03:53:21.935Z,88.38
2017-03-09T03:54:21.981Z,88.57
2017-03-09T03:55:22.006Z,88.67
2017-03-09T03:56:22.042Z,88.67
2017-03-09T03:57:22.091Z,89.14
2017-03-09T03:58:22.122Z,89.52
2017-03-09T03:59:22.552Z,89.52
2017-03-09T04:00:22.201Z,89.14
2017-03-09T04:01:22.220Z,89.33
2017-03-09T04:02:22.251Z,89.67
2017-03-09T04:03:22.274Z,89.23
2017-03-09T04:04:22.321Z,89.52
2017-03-09T04:05:22.356Z,89.71
2017-03-09T04:06:22.373Z,89.52
2017-03-09T04:07:22.422Z,89.61
2017-03-09T04:08:22.443Z,89.76
2017-03-09T04:09:22.476Z,89.8
2017-03-09T04:10:22.514Z,89.71
2017-03-09T04:11:22.544Z,89.61
2017-03-09T04:12:22.591Z,90.19
2017-03-09T04:13:22.615Z,90.28
2017-03-09T04:14:23.037Z,90.05
2017-03-09T04:15:22.685Z,90.19
2017-03-09T04:16:22.719Z,90.33
2017-03-09T04:17:22.744Z,90.09
2017-03-09T04:18:22.785Z,89.8
2017-03-09T04:19:22.817Z,90.09
2017-03-09T04:20:22.845Z,89.8
2017-03-09T04:21:22.885Z,89.8
2017-03-09T04:22:22.933Z,90.61
2017-03-09T04:23:22.955Z,89.95
2017-03-09T04:24:22.983Z,90.47
2017-03-09T04:25:23.028Z,90.56
2017-03-09T04:26:23.051Z,90.09
2017-03-09T04:27:23.099Z,90.75
2017-03-09T04:28:23.132Z,90.71
2017-03-09T04:29:23.160Z,90.23
2017-03-09T04:30:23.191Z,90.33
2017-03-09T04:31:23.225Z,90.28
2017-03-09T04:32:23.251Z,90.23
2017-03-09T04:33:23.301Z,90.19
2017-03-09T04:34:23.317Z,90.42
2017-03-09T04:35:23.352Z,90.75
2017-03-09T04:36:23.398Z,91.23
2017-03-09T04:37:23.421Z,90.56
2017-03-09T04:38:23.460Z,91.04
2017-03-09T04:39:23.486Z,91.13
2017-03-09T04:40:23.913Z,90.94
2017-03-09T04:41:23.557Z,91.13
2017-03-09T04:42:23.590Z,91.13
2017-03-09T04:43:23.624Z,91.13
2017-03-09T04:44:23.677Z,90.85
2017-03-09T04:45:23.693Z,90.94
2017-03-09T04:46:23.726Z,91.13
2017-03-09T04:47:23.759Z,90.94
2017-03-09T04:48:23.791Z,91.04
2017-03-09T04:49:23.829Z,90.94
2017-03-09T04:50:23.868Z,90.75
2017-03-09T04:51:23.912Z,90.85
2017-03-09T04:52:23.936Z,90.85
2017-03-09T04:53:23.965Z,91.13
2017-03-09T04:54:23.994Z,90.94
2017-03-09T04:55:24.041Z,90.47
2017-03-09T04:56:24.060Z,90.94
2017-03-09T04:57:24.484Z,90.75
2017-03-09T04:58:24.128Z,91.04
2017-03-09T04:59:24.165Z,90.85
2017-03-09T05:00:24.204Z,90.56
2017-03-09T05:01:24.229Z,90.94
2017-03-09T05:02:24.265Z,90.66
2017-03-09T05:03:24.315Z,90.66
2017-03-09T05:04:24.356Z,91.04
2017-03-09T05:05:24.394Z,91.04
2017-03-09T05:06:24.397Z,91.13
2017-03-09T05:07:24.446Z,90.75
2017-03-09T05:08:24.475Z,90.94
2017-03-09T05:09:24.517Z,90.85
2017-03-09T05:10:24.538Z,91.13
2017-03-09T05:11:24.569Z,90.85
2017-03-09T05:12:24.599Z,90.66
2017-03-09T05:13:24.653Z,90.94
2017-03-09T05:14:25.077Z,90.94
2017-03-09T05:15:24.708Z,90.66
2017-03-09T05:16:24.737Z,91.23
2017-03-09T05:17:24.769Z,91.04
2017-03-09T05:18:24.806Z,91.13
2017-03-09T05:19:24.840Z,91.23
2017-03-09T05:20:24.872Z,90.94
2017-03-09T05:21:24.909Z,90.66
2017-03-09T05:22:24.953Z,90.56
2017-03-09T05:23:24.973Z,90.56
2017-03-09T05:24:25.013Z,90.94
2017-03-09T05:25:25.043Z,90.94
2017-03-09T05:26:25.089Z,91.04
2017-03-09T05:27:25.113Z,91.04
2017-03-09T05:28:25.141Z,90.66
2017-03-09T05:29:25.183Z,91.04
2017-03-09T05:30:25.211Z,91.04
2017-03-09T05:31:25.243Z,90.56
2017-03-09T05:32:25.291Z,90.94
2017-03-09T05:33:25.322Z,90.56
2017-03-09T05:34:25.355Z,90.56
2017-03-09T05:35:25.383Z,90.94
2017-03-09T05:36:25.416Z,90.75
2017-03-09T05:37:25.448Z,90.85
2017-03-09T05:38:25.482Z,91.13
2017-03-09T05:39:25.917Z,90.94
2017-03-09T05:40:25.551Z,90.94
2017-03-09T05:41:25.580Z,90.85
2017-03-09T05:42:25.620Z,90.75
2017-03-09T05:43:25.649Z,90.75
2017-03-09T05:44:25.683Z,90.85
2017-03-09T05:45:25.732Z,90.94
2017-03-09T05:46:25.763Z,91.04
2017-03-09T05:47:25.789Z,91.04
2017-03-09T05:48:26.230Z,90.85
2017-03-09T05:49:25.852Z,91.04
2017-03-09T05:50:25.897Z,91.23
2017-03-09T05:51:26.320Z,91.04
2017-03-09T05:52:25.956Z,91.04
2017-03-09T05:53:25.990Z,91.13
2017-03-09T05:54:26.417Z,91.13
2017-03-09T05:55:26.068Z,91.13
2017-03-09T05:56:26.095Z,90.37
2017-03-09T05:57:26.123Z,91.13
2017-03-09T05:58:26.167Z,91.42
2017-03-09T05:59:26.193Z,91.42
2017-03-09T06:00:26.231Z,90.47
2017-03-09T06:01:26.263Z,90.47
2017-03-09T06:02:26.300Z,90.37
2017-03-09T06:03:26.331Z,90.33
2017-03-09T06:04:26.366Z,90.66
2017-03-09T06:05:26.405Z,90.28
2017-03-09T06:06:26.448Z,90.28
2017-03-09T06:07:26.481Z,90.09
2017-03-09T06:08:26.544Z,90.37
2017-03-09T06:09:26.534Z,90.47
2017-03-09T06:10:26.570Z,90.28
2017-03-09T06:11:26.602Z,90.47
2017-03-09T06:12:26.638Z,90.09
2017-03-09T06:13:26.672Z,90.52
2017-03-09T06:14:26.703Z,90.56
2017-03-09T06:15:26.736Z,90.28
2017-03-09T06:16:26.771Z,90.42
2017-03-09T06:17:27.209Z,90.47
2017-03-09T06:18:26.846Z,90.42
2017-03-09T06:19:26.876Z,90.47
2017-03-09T06:20:26.919Z,90.61
2017-03-09T06:21:26.951Z,90.66
2017-03-09T06:22:26.977Z,90.52
2017-03-09T06:23:27.018Z,90.47
2017-03-09T06:24:27.047Z,90.66
2017-03-09T06:25:27.093Z,90.28
2017-03-09T06:26:27.121Z,90.52
2017-03-09T06:27:27.147Z,90.14
2017-03-09T06:28:27.185Z,90.52
2017-03-09T06:29:27.638Z,90.33
2017-03-09T06:30:27.256Z,90.47
2017-03-09T06:31:27.282Z,90.61
2017-03-09T06:32:27.319Z,90.61
2017-03-09T06:33:27.358Z,90.61
2017-03-09T06:34:27.402Z,90.42
2017-03-09T06:35:27.428Z,90.7
2017-03-09T06:36:27.459Z,90.7
2017-03-09T06:37:27.492Z,90.61
2017-03-09T06:38:27.522Z,90.14
2017-03-09T06:39:27.962Z,90.61
2017-03-09T06:40:27.597Z,90.42
2017-03-09T06:41:27.632Z,90.42
2017-03-09T06:42:27.665Z,90.7
2017-03-09T06:43:27.710Z,90.42
2017-03-09T06:44:27.731Z,90.23
2017-03-09T06:45:27.772Z,90.33
2017-03-09T06:46:27.811Z,90.33
2017-03-09T06:47:27.846Z,90.23
2017-03-09T06:48:27.869Z,90.14
2017-03-09T06:49:27.902Z,90.42
2017-03-09T06:50:27.938Z,90.42
2017-03-09T06:51:27.972Z,90.42
2017-03-09T06:52:28.011Z,89.66
2017-03-09T06:53:28.072Z,89.94
2017-03-09T06:54:28.077Z,90.23
2017-03-09T06:55:28.140Z,90.42
2017-03-09T06:56:28.199Z,90.14
2017-03-09T06:57:28.180Z,90.23
2017-03-09T06:58:28.215Z,90.42
2017-03-09T06:59:28.656Z,90.14
2017-03-09T07:00:28.284Z,90.14
2017-03-09T07:01:28.422Z,90.33
2017-03-09T07:02:28.352Z,90.14
2017-03-09T07:03:28.387Z,89.85
2017-03-09T07:04:28.815Z,89.75
2017-03-09T07:05:28.503Z,90.14
2017-03-09T07:06:28.500Z,89.85
2017-03-09T07:07:28.527Z,89.85
2017-03-09T07:08:28.567Z,89.94
2017-03-09T07:09:28.616Z,89.94
2017-03-09T07:10:28.629Z,89.94
2017-03-09T07:11:28.662Z,89.47
2017-03-09T07:12:28.707Z,89.37
2017-03-09T07:13:28.746Z,89.37
2017-03-09T07:14:28.783Z,89.28
2017-03-09T07:15:28.802Z,89.37
2017-03-09T07:16:28.843Z,89.61
2017-03-09T07:17:28.871Z,89.18
2017-03-09T07:18:29.140Z,89.61
2017-03-09T07:19:28.940Z,89.23
2017-03-09T07:20:28.976Z,89.32
2017-03-09T07:21:29.068Z,89.42
2017-03-09T07:22:29.054Z,89.61
2017-03-09T07:23:29.089Z,89.42
2017-03-09T07:24:29.119Z,89.51
2017-03-09T07:25:29.161Z,89.51
2017-03-09T07:26:29.205Z,89.42
2017-03-09T07:27:29.221Z,89.51
2017-03-09T07:28:29.256Z,88.66
2017-03-09T07:29:29.292Z,88.85
2017-03-09T07:30:29.326Z,88.85
2017-03-09T07:31:29.374Z,88.37
2017-03-09T07:32:29.408Z,88.66
2017-03-09T07:33:29.630Z,88.66
2017-03-09T07:34:29.491Z,88.56
2017-03-09T07:35:29.501Z,87.9
2017-03-09T07:36:29.579Z,88.18
2017-03-09T07:37:29.595Z,88.37
2017-03-09T07:38:29.681Z,88.18
2017-03-09T07:39:29.639Z,88.18
2017-03-09T07:40:29.692Z,88.28
2017-03-09T07:41:29.712Z,87.71
2017-03-09T07:42:30.135Z,88.37
2017-03-09T07:43:29.786Z,87.71
2017-03-09T07:44:29.825Z,88.09
2017-03-09T07:45:30.040Z,87.8
2017-03-09T07:46:29.889Z,87.99
2017-03-09T07:47:29.931Z,88.46
2017-03-09T07:48:29.964Z,88.18
2017-03-09T07:49:29.994Z,87.52
2017-03-09T07:50:30.080Z,87.52
2017-03-09T07:51:30.074Z,87.61
2017-03-09T07:52:30.095Z,87.71
2017-03-09T07:53:30.140Z,87.71
2017-03-09T07:54:30.171Z,88.13
2017-03-09T07:55:30.211Z,88.23
2017-03-09T07:56:30.254Z,87.8
2017-03-09T07:57:30.281Z,87.85
2017-03-09T07:58:30.307Z,87.04
2017-03-09T07:59:30.345Z,87.52
2017-03-09T08:00:30.516Z,87.32
2017-03-09T08:01:30.414Z,87.9
2017-03-09T08:02:30.449Z,87.71
2017-03-09T08:03:30.517Z,87.61
2017-03-09T08:04:30.517Z,87.08
2017-03-09T08:05:30.554Z,87.27
2017-03-09T08:06:30.592Z,87.18
2017-03-09T08:07:30.640Z,87.08
2017-03-09T08:08:30.663Z,87.08
2017-03-09T08:09:30.692Z,87.08
2017-03-09T08:10:31.132Z,87.37
2017-03-09T08:11:30.764Z,86.8
2017-03-09T08:12:30.826Z,86.99
2017-03-09T08:13:30.835Z,87.27
2017-03-09T08:14:30.870Z,87.37
2017-03-09T08:15:31.972Z,86.99
2017-03-09T08:16:30.941Z,86.99
2017-03-09T08:17:31.365Z,86.99
2017-03-09T08:18:31.040Z,86.9
2017-03-09T08:19:31.046Z,86.8
2017-03-09T08:20:31.083Z,86.99
2017-03-09T08:21:31.128Z,86.99
2017-03-09T08:22:31.156Z,87.08
2017-03-09T08:23:31.201Z,86.61
2017-03-09T08:24:31.257Z,87.08
2017-03-09T08:25:31.257Z,86.42
2017-03-09T08:26:31.292Z,86.13
2017-03-09T08:27:31.329Z,86.51
2017-03-09T08:28:31.374Z,86.32
2017-03-09T08:29:31.399Z,86.42
2017-03-09T08:30:31.441Z,86.51
2017-03-09T08:31:31.469Z,86.22
2017-03-09T08:32:31.521Z,86.51
2017-03-09T08:33:31.542Z,86.55
2017-03-09T08:34:31.576Z,86.94
2017-03-09T08:35:31.616Z,87.03
2017-03-09T08:36:31.660Z,86.84
2017-03-09T08:39:32.160Z,85.93
2017-03-09T08:40:31.805Z,85.88
2017-03-09T08:41:31.832Z,85.69
2017-03-09T08:42:31.872Z,85.12
2017-03-09T08:43:31.958Z,84.74
2017-03-09T08:44:31.962Z,84.74
2017-03-09T08:45:32.173Z,84.97
2017-03-09T08:46:32.034Z,84.4
2017-03-09T08:47:32.076Z,83.83
2017-03-09T08:48:32.101Z,83.83
2017-03-09T08:49:32.174Z,83.64
2017-03-09T08:50:32.190Z,83.06
2017-03-09T08:51:32.207Z,82.97
2017-03-09T08:52:32.244Z,82.87
2017-03-09T08:53:32.280Z,82.34
2017-03-09T08:54:32.319Z,81.58
2017-03-09T08:55:32.362Z,81.2
2017-03-09T08:56:32.787Z,80.91
2017-03-09T08:57:32.452Z,80.72
2017-03-09T08:58:32.470Z,80.15
2017-03-09T08:59:32.518Z,80.24
2017-03-09T09:00:32.548Z,79.96
2017-03-09T09:01:32.582Z,80.05
2017-03-09T09:02:32.623Z,79.86
2017-03-09T09:03:32.663Z,79.28
2017-03-09T09:04:32.709Z,79.72
2017-03-09T09:05:32.738Z,79.67
2017-03-09T09:06:32.775Z,79.67
2017-03-09T09:07:32.819Z,78.81
2017-03-09T09:08:32.850Z,79.38
2017-03-09T09:09:32.895Z,78.91
2017-03-09T09:10:32.942Z,79.14
2017-03-09T09:11:32.967Z,78.56
2017-03-09T09:12:33.020Z,78.28
2017-03-09T09:13:33.045Z,77.89
2017-03-09T09:14:33.078Z,77.99
2017-03-09T09:15:33.119Z,77.32
2017-03-09T09:16:33.168Z,77.89
2017-03-09T09:17:33.198Z,77.23
2017-03-09T09:18:33.241Z,76.84
2017-03-09T09:19:33.321Z,76.4
2017-03-09T09:20:33.355Z,76.31
2017-03-09T09:21:33.383Z,77.08
2017-03-09T09:22:33.447Z,76.5
2017-03-09T09:23:33.454Z,76.67
2017-03-09T09:24:33.550Z,75.56
2017-03-09T09:25:33.601Z,74.22
2017-03-09T09:26:33.556Z,73.02
2017-03-09T09:27:33.598Z,72.19
2017-03-09T09:28:34.062Z,72.19
2017-03-09T09:29:33.681Z,71.08
2017-03-09T09:30:33.723Z,70.6
2017-03-09T09:31:33.776Z,70.21
2017-03-09T09:32:33.803Z,69.17
2017-03-09T09:33:33.847Z,68.91
2017-03-09T09:34:33.899Z,68.52
2017-03-09T09:35:33.931Z,68.66
2017-03-09T09:36:34.372Z,67.5
2017-03-09T09:37:34.027Z,67.54
2017-03-09T09:38:34.066Z,66.8
2017-03-09T09:39:34.112Z,65.88
2017-03-09T09:40:34.153Z,64.15
2017-03-09T09:41:34.206Z,63.02
2017-03-09T09:42:34.247Z,61.97
2017-03-09T09:43:34.288Z,62.26
2017-03-09T09:44:34.340Z,60.24
2017-03-09T09:45:34.386Z,60.14
2017-03-09T09:46:34.434Z,60.14
2017-03-09T09:47:34.468Z,59.38
2017-03-09T09:48:34.518Z,59.09
2017-03-09T09:49:34.585Z,58.32
2017-03-09T09:50:34.613Z,57.17
2017-03-09T09:51:34.651Z,56.68
2017-03-09T09:52:34.745Z,55.79
2017-03-09T09:53:34.743Z,54.93
2017-03-09T09:54:34.847Z,54.42
2017-03-09T09:55:34.828Z,54.01
2017-03-09T09:56:35.267Z,53.89
2017-03-09T09:57:35.347Z,54.46
2017-03-09T09:58:34.958Z,54.72
2017-03-09T09:59:35.001Z,54.22
2017-03-09T10:00:35.041Z,54.12
2017-03-09T10:01:35.497Z,54.48
2017-03-09T10:02:35.124Z,54.48
2017-03-09T10:03:35.163Z,54.57
2017-03-09T10:04:35.210Z,54.93
2017-03-09T10:05:35.248Z,54.74
2017-03-09T10:06:35.292Z,54.45
2017-03-09T10:07:35.324Z,55.12
2017-03-09T10:08:35.373Z,54.74
2017-03-09T10:09:35.412Z,54.33
2017-03-09T10:10:35.461Z,53.85
2017-03-09T10:11:35.497Z,53.85
2017-03-09T10:12:35.531Z,53.94
2017-03-09T10:13:35.568Z,53.85
2017-03-09T10:14:35.613Z,54.11
2017-03-09T10:15:35.665Z,53.92
2017-03-09T10:16:35.691Z,53.82
2017-03-09T10:17:35.742Z,53.92
2017-03-09T10:18:35.775Z,54.3
2017-03-09T10:19:35.822Z,53.92
2017-03-09T10:20:35.851Z,54.02
2017-03-09T10:21:35.886Z,53.82
2017-03-09T10:22:35.934Z,54.02
2017-03-09T10:23:35.979Z,54.39
2017-03-09T10:24:36.007Z,54.49
2017-03-09T10:25:36.057Z,54.43
2017-03-09T10:26:36.088Z,54.33
2017-03-09T10:27:36.133Z,54.23
2017-03-09T10:28:36.184Z,53.94
2017-03-09T10:29:36.208Z,53.94
2017-03-09T10:30:36.250Z,53.88
2017-03-09T10:31:36.295Z,53.97
2017-03-09T10:32:36.335Z,53.3
2017-03-09T10:33:36.388Z,53.4
2017-03-09T10:34:36.409Z,52.63
2017-03-09T10:35:36.458Z,52.83
2017-03-09T10:36:36.511Z,53.4
2017-03-09T10:37:36.531Z,53.59
2017-03-09T10:38:36.578Z,53.02
2017-03-09T10:39:36.619Z,52.83
2017-03-09T10:40:36.661Z,52.92
2017-03-09T10:41:36.703Z,53.14
2017-03-09T10:42:36.735Z,51.99
2017-03-09T10:43:36.784Z,52.47
2017-03-09T10:44:36.828Z,52.47
2017-03-09T10:45:36.864Z,52.56
2017-03-09T10:46:36.905Z,51.61
2017-03-09T10:47:36.948Z,51.51
2017-03-09T10:48:37.003Z,52.09
2017-03-09T10:49:37.027Z,51.89
2017-03-09T10:50:37.066Z,51.7
2017-03-09T10:51:37.108Z,51.7
2017-03-09T10:52:37.154Z,51.51
2017-03-09T10:53:37.194Z,51.22
2017-03-09T10:54:37.270Z,51.39
2017-03-09T10:55:37.276Z,51.39
2017-03-09T10:56:37.320Z,51.29
2017-03-09T10:57:37.376Z,51.1
2017-03-09T10:58:37.392Z,50.91
2017-03-09T10:59:37.432Z,51.39
2017-03-09T11:00:37.470Z,51.77
2017-03-09T11:01:37.528Z,51.39
2017-03-09T11:02:37.561Z,51.39
2017-03-09T11:03:37.621Z,51.39
2017-03-09T11:04:37.652Z,51.48
2017-03-09T11:05:37.695Z,51.39
2017-03-09T11:06:37.713Z,51.39
2017-03-09T11:07:37.763Z,51.58
2017-03-09T11:08:38.335Z,51.48
2017-03-09T11:09:37.884Z,51.77
2017-03-09T11:10:37.886Z,51.51
2017-03-09T11:11:37.924Z,51.51
2017-03-09T11:12:38.373Z,51.51
2017-03-09T11:13:38.006Z,51.51
2017-03-09T11:14:38.046Z,51.51
2017-03-09T11:15:38.082Z,51.7
2017-03-09T11:16:38.125Z,51.32
2017-03-09T11:17:38.170Z,51.32
2017-03-09T11:18:38.207Z,51.99
2017-03-09T11:19:38.320Z,51.42
2017-03-09T11:20:38.304Z,51.42
2017-03-09T11:21:38.454Z,51.32
2017-03-09T11:22:38.377Z,50.46
2017-03-09T11:23:38.418Z,50.65
2017-03-09T11:24:38.463Z,50.34
2017-03-09T11:25:38.489Z,50.43
2017-03-09T11:26:38.567Z,50.62
2017-03-09T11:27:38.653Z,51.17
2017-03-09T11:28:38.616Z,50.6
2017-03-09T11:29:38.658Z,51.46
2017-03-09T11:30:38.692Z,51.75
2017-03-09T11:31:38.736Z,51.17
2017-03-09T11:32:38.788Z,51.46
2017-03-09T11:33:38.824Z,51.46
2017-03-09T11:34:38.849Z,51.75
2017-03-09T11:35:38.887Z,51.36
2017-03-09T11:36:38.932Z,52.22
2017-03-09T11:37:38.974Z,51.65
2017-03-09T11:38:39.011Z,52.32
2017-03-09T11:39:39.047Z,52.13
2017-03-09T11:40:39.088Z,52.22
2017-03-09T11:41:39.146Z,52.06
2017-03-09T11:42:39.179Z,51.87
2017-03-09T11:43:39.221Z,52.06
2017-03-09T11:44:39.267Z,51.87
2017-03-09T11:45:39.299Z,51.68
2017-03-09T11:46:39.352Z,51.61
2017-03-09T11:47:39.381Z,52.28
2017-03-09T11:48:39.426Z,52.09
2017-03-09T11:49:39.473Z,51.61
2017-03-09T11:50:39.518Z,51.32
2017-03-09T11:51:39.547Z,51.89
2017-03-09T11:52:39.588Z,51.61
2017-03-09T11:53:39.624Z,51.61
2017-03-09T11:54:39.674Z,51.13
2017-03-09T11:55:39.714Z,51.61
2017-03-09T11:56:39.755Z,50.93
2017-03-09T11:57:39.812Z,51.42
2017-03-09T11:58:39.854Z,51.51
2017-03-09T11:59:40.270Z,51.42
2017-03-09T12:00:39.917Z,51.99
2017-03-09T12:01:39.951Z,51.42
2017-03-09T12:02:40.006Z,51.22
2017-03-09T12:03:40.053Z,51.42
2017-03-09T12:04:40.084Z,51.7
2017-03-09T12:05:40.131Z,51.42
2017-03-09T12:06:40.156Z,51.32
2017-03-09T12:07:40.200Z,51.39
2017-03-09T12:08:40.246Z,51.51
2017-03-09T12:09:40.295Z,51.68
2017-03-09T12:10:40.327Z,51.42
2017-03-09T12:11:40.357Z,51.32
2017-03-09T12:12:40.411Z,51.42
2017-03-09T12:13:40.448Z,51.13
2017-03-09T12:14:40.502Z,51.51
2017-03-09T12:15:40.530Z,51.42
2017-03-09T12:16:40.572Z,51.39
2017-03-09T12:17:40.610Z,51.29
2017-03-09T12:18:40.663Z,51.2
2017-03-09T12:19:40.691Z,51.48
2017-03-09T12:20:40.759Z,51.58
2017-03-09T12:21:41.181Z,51.2
2017-03-09T12:22:40.813Z,51.48
2017-03-09T12:23:40.850Z,51.22
2017-03-09T12:24:40.891Z,51.03
2017-03-09T12:25:40.945Z,51.32
2017-03-09T12:26:40.974Z,50.93
2017-03-09T12:27:41.403Z,51.03
2017-03-09T12:28:41.059Z,51.22
2017-03-09T12:29:41.090Z,51.13
2017-03-09T12:30:41.149Z,51.22
2017-03-09T12:31:41.260Z,51.22
2017-03-09T12:32:41.604Z,50.84
2017-03-09T12:33:41.254Z,50.65
2017-03-09T12:34:41.306Z,51.13
2017-03-09T12:35:41.341Z,51.51
2017-03-09T12:36:41.368Z,51.42
2017-03-09T12:37:41.413Z,51.03
2017-03-09T12:38:41.460Z,51.22
2017-03-09T12:39:41.651Z,51.61
2017-03-09T12:40:41.539Z,51.51
2017-03-09T12:41:41.579Z,51.42
2017-03-09T12:42:41.609Z,51.51
2017-03-09T12:43:41.661Z,51.89
2017-03-09T12:44:41.695Z,51.99
2017-03-09T12:45:41.739Z,51.13
2017-03-09T12:46:41.771Z,51.51
2017-03-09T12:47:41.811Z,51.48
2017-03-09T12:48:41.888Z,51.79
2017-03-09T12:49:41.894Z,51.61
2017-03-09T12:50:41.945Z,51.03
2017-03-09T12:51:41.969Z,51.2
2017-03-09T12:52:42.013Z,51.2
2017-03-09T12:53:42.332Z,51.39
2017-03-09T12:54:42.095Z,51.01
2017-03-09T12:55:42.144Z,51.01
2017-03-09T12:56:42.185Z,51.2